createdAt,value
2023-03-18T00:00:43.633Z,7.15
2023-03-18T00:03:11.421Z,6.93
2023-03-18T00:05:38.188Z,6.28
2023-03-18T00:08:06.681Z,6.38
2023-03-18T00:10:35.245Z,6.60
2023-03-18T00:13:04.767Z,6.32
2023-03-18T00:15:31.871Z,6.78
2023-03-18T00:17:59.935Z,7.30
2023-03-18T00:20:38.785Z,6.63
2023-03-18T00:23:08.675Z,7.65
2023-03-18T00:25:36.782Z,7.55
2023-03-18T00:28:05.220Z,7.22
2023-03-18T00:30:32.989Z,7.10
2023-03-18T00:33:00.566Z,7.03
2023-03-18T00:35:31.062Z,7.20
2023-03-18T00:38:03.950Z,7.13
2023-03-18T00:40:43.358Z,7.05
2023-03-18T00:43:12.748Z,6.60
2023-03-18T00:45:41.399Z,6.28
2023-03-18T00:48:09.024Z,6.38
2023-03-18T00:50:37.140Z,6.63
2023-03-18T00:53:04.266Z,6.85
2023-03-18T00:55:31.115Z,6.72
2023-03-18T00:57:57.977Z,6.10
2023-03-18T01:00:26.305Z,6.68
2023-03-18T01:02:53.631Z,5.82
2023-03-18T01:05:21.919Z,6.68
2023-03-18T01:07:49.416Z,6.30
2023-03-18T01:10:17.116Z,5.93
2023-03-18T01:12:48.252Z,7.00
2023-03-18T01:15:17.785Z,6.20
2023-03-18T01:17:45.602Z,6.20
2023-03-18T01:20:14.368Z,5.80
2023-03-18T01:22:42.342Z,6.63
2023-03-18T01:25:11.740Z,6.22
2023-03-18T01:27:40.723Z,6.22
2023-03-18T01:30:09.283Z,6.10
2023-03-18T01:32:36.696Z,6.30
2023-03-18T01:35:03.907Z,6.75
2023-03-18T01:37:31.601Z,6.65
2023-03-18T01:40:11.396Z,5.45
2023-03-18T01:42:38.952Z,6.13
2023-03-18T01:45:21.942Z,5.57
2023-03-18T01:47:51.692Z,6.45
2023-03-18T01:50:24.575Z,7.18
2023-03-18T01:52:58.064Z,6.05
2023-03-18T01:57:54.444Z,6.60
2023-03-18T02:00:23.471Z,6.47
2023-03-18T02:02:53.723Z,7.13
2023-03-18T02:07:51.783Z,6.57
2023-03-18T02:10:25.373Z,6.65
2023-03-18T02:13:02.604Z,7.35
2023-03-18T02:15:35.353Z,6.80
2023-03-18T02:18:30.958Z,6.30
2023-03-18T02:21:04.154Z,7.05
2023-03-18T02:23:53.070Z,6.72
2023-03-18T02:26:44.622Z,6.70
2023-03-18T02:29:14.779Z,7.00
2023-03-18T02:31:52.207Z,7.45
2023-03-18T02:34:25.614Z,7.18
2023-03-18T02:36:54.810Z,7.07
2023-03-18T02:39:23.146Z,7.60
2023-03-18T02:41:53.348Z,8.15
2023-03-18T02:44:21.296Z,7.72
2023-03-18T02:47:14.329Z,8.35
2023-03-18T02:49:41.495Z,6.95
2023-03-18T02:52:08.728Z,7.57
2023-03-18T02:54:36.159Z,7.10
2023-03-18T02:57:03.143Z,8.35
2023-03-18T02:59:32.505Z,8.50
2023-03-18T03:02:00.809Z,8.60
2023-03-18T03:04:28.173Z,7.70
2023-03-18T03:06:56.889Z,8.50
2023-03-18T03:09:37.859Z,8.25
2023-03-18T03:12:06.818Z,7.85
2023-03-18T03:14:36.974Z,7.32
2023-03-18T03:17:04.367Z,7.65
2023-03-18T03:19:31.839Z,6.88
2023-03-18T03:21:58.918Z,7.32
2023-03-18T03:24:25.894Z,6.75
2023-03-18T03:26:52.766Z,6.78
2023-03-18T03:29:20.380Z,6.97
2023-03-18T03:31:49.394Z,7.68
2023-03-18T03:34:16.131Z,7.38
2023-03-18T03:36:43.173Z,7.30
2023-03-18T03:39:10.745Z,7.13
2023-03-18T03:41:37.546Z,7.13
2023-03-18T03:44:04.920Z,6.93
2023-03-18T03:46:32.284Z,7.60
2023-03-18T03:48:59.672Z,7.25
2023-03-18T03:51:26.425Z,6.65
2023-03-18T03:53:53.294Z,6.82
2023-03-18T03:56:20.112Z,7.32
2023-03-18T03:58:47.008Z,6.40
2023-03-18T04:01:14.183Z,6.05
2023-03-18T04:03:42.581Z,6.53
2023-03-18T04:06:09.353Z,6.70
2023-03-18T04:08:41.577Z,6.75
2023-03-18T04:11:08.420Z,7.15
2023-03-18T04:13:35.182Z,6.60
2023-03-18T04:16:04.115Z,6.80
2023-03-18T04:18:31.175Z,6.82
2023-03-18T04:20:57.906Z,5.82
2023-03-18T04:23:42.615Z,6.70
2023-03-18T04:26:09.412Z,7.40
2023-03-18T04:28:36.440Z,6.53
2023-03-18T04:31:05.849Z,6.53
2023-03-18T04:33:33.085Z,6.45
2023-03-18T04:36:00.360Z,6.90
2023-03-18T04:38:28.552Z,7.35
2023-03-18T04:40:55.779Z,7.55
2023-03-18T04:43:22.962Z,8.30
2023-03-18T04:45:50.908Z,8.82
2023-03-18T04:48:18.443Z,9.23
2023-03-18T04:50:46.366Z,9.32
2023-03-18T04:53:18.790Z,8.55
2023-03-18T04:55:45.710Z,9.80
2023-03-18T04:58:14.422Z,9.45
2023-03-18T05:00:50.285Z,9.90
2023-03-18T05:03:25.384Z,9.13
2023-03-18T05:05:53.520Z,10.63
2023-03-18T05:08:29.057Z,10.23
2023-03-18T05:10:56.505Z,10.23
2023-03-18T05:13:24.173Z,9.05
2023-03-18T05:15:53.646Z,8.15
2023-03-18T05:18:21.140Z,8.48
2023-03-18T05:20:50.851Z,9.02
2023-03-18T05:23:18.926Z,8.43
2023-03-18T05:25:53.425Z,8.73
2023-03-18T05:28:22.775Z,8.30
2023-03-18T05:31:05.804Z,9.07
2023-03-18T05:33:36.075Z,9.23
2023-03-18T05:36:03.733Z,10.00
2023-03-18T05:38:36.473Z,9.85
2023-03-18T05:41:03.368Z,10.70
2023-03-18T05:43:37.794Z,9.65
2023-03-18T05:46:05.959Z,8.88
2023-03-18T05:48:48.971Z,7.75
2023-03-18T05:51:15.976Z,8.63
2023-03-18T05:53:42.785Z,7.72
2023-03-18T05:56:20.349Z,7.85
2023-03-18T05:58:51.260Z,8.27
2023-03-18T06:01:27.302Z,7.68
2023-03-18T06:03:55.351Z,8.45
2023-03-18T06:06:22.108Z,7.88
2023-03-18T06:08:48.901Z,8.68
2023-03-18T06:11:15.767Z,7.28
2023-03-18T06:13:43.430Z,7.70
2023-03-18T06:16:11.550Z,8.05
2023-03-18T06:18:39.018Z,7.72
2023-03-18T06:21:09.153Z,8.15
2023-03-18T06:23:36.762Z,7.28
2023-03-18T06:26:04.345Z,8.20
2023-03-18T06:28:36.662Z,7.80
2023-03-18T06:31:10.888Z,9.02
2023-03-18T06:33:38.568Z,7.65
2023-03-18T06:36:08.354Z,7.95
2023-03-18T06:38:35.157Z,7.38
2023-03-18T06:41:02.609Z,8.07
2023-03-18T06:43:33.379Z,7.78
2023-03-18T06:46:00.888Z,7.00
2023-03-18T06:48:28.963Z,6.97
2023-03-18T06:50:57.422Z,7.78
2023-03-18T06:53:30.530Z,6.65
2023-03-18T06:55:58.437Z,7.93
2023-03-18T06:58:30.670Z,7.22
2023-03-18T07:01:04.889Z,7.65
2023-03-18T07:03:37.508Z,7.70
2023-03-18T07:06:04.607Z,8.27
2023-03-18T07:08:32.493Z,6.43
2023-03-18T07:10:59.287Z,6.60
2023-03-18T07:13:27.100Z,6.95
2023-03-18T07:15:56.698Z,6.60
2023-03-18T07:18:25.670Z,6.35
2023-03-18T07:20:52.853Z,6.70
2023-03-18T07:23:22.346Z,6.38
2023-03-18T07:25:49.818Z,6.50
2023-03-18T07:28:19.529Z,6.53
2023-03-18T07:30:47.071Z,6.18
2023-03-18T07:33:14.431Z,6.30
2023-03-18T07:35:41.853Z,6.10
2023-03-18T07:38:09.813Z,6.45
2023-03-18T07:40:37.660Z,5.65
2023-03-18T07:43:05.852Z,5.82
2023-03-18T07:45:33.516Z,6.15
2023-03-18T07:48:00.966Z,6.22
2023-03-18T07:50:28.064Z,6.25
2023-03-18T07:52:55.200Z,5.53
2023-03-18T07:55:22.003Z,6.63
2023-03-18T07:57:49.297Z,5.78
2023-03-18T08:00:16.874Z,6.30
2023-03-18T08:02:43.940Z,5.60
2023-03-18T08:05:11.453Z,6.50
2023-03-18T08:07:38.561Z,5.68
2023-03-18T08:10:06.086Z,5.90
2023-03-18T08:12:45.242Z,5.22
2023-03-18T08:15:18.268Z,5.82
2023-03-18T08:17:45.240Z,6.10
2023-03-18T08:20:12.498Z,5.90
2023-03-18T08:22:39.591Z,5.93
2023-03-18T08:25:06.984Z,6.10
2023-03-18T08:27:33.768Z,6.15
2023-03-18T08:30:03.046Z,5.35
2023-03-18T08:32:30.849Z,5.10
2023-03-18T08:34:57.915Z,5.40
2023-03-18T08:37:24.891Z,6.00
2023-03-18T08:39:51.659Z,5.22
2023-03-18T08:42:19.218Z,5.38
2023-03-18T08:44:45.962Z,5.55
2023-03-18T08:47:12.726Z,5.68
2023-03-18T08:49:39.508Z,4.80
2023-03-18T08:52:06.999Z,5.10
2023-03-18T08:54:34.003Z,5.80
2023-03-18T08:57:00.746Z,5.70
2023-03-18T08:59:27.549Z,4.93
2023-03-18T09:01:54.290Z,5.68
2023-03-18T09:04:21.016Z,5.90
2023-03-18T09:06:48.997Z,5.05
2023-03-18T09:09:16.819Z,5.60
2023-03-18T09:11:45.704Z,5.32
2023-03-18T09:14:13.412Z,6.00
2023-03-18T09:16:40.835Z,5.60
2023-03-18T09:19:07.636Z,5.78
2023-03-18T09:21:34.341Z,5.50
2023-03-18T09:24:01.092Z,5.45
2023-03-18T09:26:27.803Z,5.28
2023-03-18T09:28:54.518Z,5.60
2023-03-18T09:31:21.382Z,6.47
2023-03-18T09:33:48.390Z,5.60
2023-03-18T09:36:15.744Z,5.60
2023-03-18T09:38:42.714Z,5.53
2023-03-18T09:41:21.214Z,5.10
2023-03-18T09:44:02.822Z,5.18
2023-03-18T09:46:41.601Z,6.03
2023-03-18T09:49:23.632Z,5.50
2023-03-18T09:52:14.463Z,4.78
2023-03-18T09:55:18.035Z,5.38
2023-03-18T09:57:47.620Z,4.75
2023-03-18T10:00:24.381Z,5.15
2023-03-18T10:02:57.539Z,5.20
2023-03-18T10:05:48.628Z,5.75
2023-03-18T10:08:27.421Z,5.28
2023-03-18T10:10:54.357Z,5.53
2023-03-18T10:13:31.814Z,5.30
2023-03-18T10:16:03.678Z,5.35
2023-03-18T10:18:33.651Z,5.32
2023-03-18T10:21:35.091Z,5.25
2023-03-18T10:24:13.608Z,5.10
2023-03-18T10:27:17.164Z,4.97
2023-03-18T10:29:46.824Z,5.13
2023-03-18T10:32:25.134Z,4.63
2023-03-18T10:35:17.451Z,5.43
2023-03-18T10:38:04.647Z,5.03
2023-03-18T10:40:41.439Z,4.90
2023-03-18T10:43:17.163Z,4.90
2023-03-18T10:45:45.316Z,4.13
2023-03-18T10:48:21.103Z,4.90
2023-03-18T10:51:07.706Z,4.85
2023-03-18T10:53:55.702Z,5.45
2023-03-18T10:56:22.642Z,4.95
2023-03-18T10:58:52.371Z,5.10
2023-03-18T11:01:23.360Z,5.45
2023-03-18T11:04:06.829Z,5.47
2023-03-18T11:09:09.994Z,4.65
2023-03-18T11:11:42.401Z,4.85
2023-03-18T11:14:20.964Z,5.57
2023-03-18T11:17:01.155Z,5.85
2023-03-18T11:19:32.684Z,5.55
2023-03-18T11:22:24.845Z,5.25
2023-03-18T11:25:14.020Z,5.07
2023-03-18T11:27:50.593Z,5.10
2023-03-18T11:30:41.536Z,5.45
2023-03-18T11:33:11.941Z,5.35
2023-03-18T11:35:45.287Z,5.60
2023-03-18T11:38:16.642Z,5.63
2023-03-18T11:40:43.905Z,4.22
2023-03-18T11:43:19.673Z,4.80
2023-03-18T11:45:57.878Z,5.05
2023-03-18T11:48:40.492Z,5.18
2023-03-18T11:51:35.223Z,5.47
2023-03-18T11:54:49.141Z,4.90
2023-03-18T11:57:32.351Z,5.43
2023-03-18T12:00:17.687Z,5.25
2023-03-18T12:03:23.036Z,5.43
2023-03-18T12:05:58.667Z,4.75
2023-03-18T12:08:31.753Z,5.32
2023-03-18T12:11:30.851Z,5.43
2023-03-18T12:14:19.201Z,4.93
2023-03-18T12:17:15.141Z,5.07
2023-03-18T12:19:44.848Z,5.57
2023-03-18T12:22:24.079Z,4.30
2023-03-18T12:25:06.747Z,5.25
2023-03-18T12:27:52.577Z,4.60
2023-03-18T12:31:00.742Z,5.05
2023-03-18T12:33:58.050Z,5.00
2023-03-18T12:36:30.303Z,4.90
2023-03-18T12:39:04.189Z,4.78
2023-03-18T12:41:49.823Z,5.15
2023-03-18T12:44:37.964Z,4.30
2023-03-18T12:47:25.888Z,4.47
2023-03-18T12:50:03.436Z,4.30
2023-03-18T12:52:38.640Z,4.80
2023-03-18T12:55:22.647Z,4.28
2023-03-18T12:57:50.713Z,3.70
2023-03-18T13:00:28.448Z,4.50
2023-03-18T13:03:28.873Z,4.22
2023-03-18T13:06:05.131Z,4.47
2023-03-18T13:08:52.479Z,4.28
2023-03-18T13:11:40.591Z,4.57
2023-03-18T13:14:13.430Z,3.97
2023-03-18T13:16:41.471Z,3.42
2023-03-18T13:19:10.887Z,4.18
2023-03-18T13:21:48.299Z,4.32
2023-03-18T13:24:23.896Z,4.07
2023-03-18T13:27:20.983Z,4.03
2023-03-18T13:30:21.362Z,3.90
2023-03-18T13:32:56.641Z,4.30
2023-03-18T13:35:41.200Z,3.75
2023-03-18T13:38:33.584Z,3.97
2023-03-18T13:41:18.783Z,4.50
2023-03-18T13:43:49.501Z,4.20
2023-03-18T13:46:26.031Z,4.60
2023-03-18T13:49:01.266Z,3.83
2023-03-18T13:51:30.745Z,4.72
2023-03-18T13:54:12.247Z,4.18
2023-03-18T13:56:42.837Z,4.60
2023-03-18T13:59:34.582Z,4.75
2023-03-18T14:02:29.511Z,4.22
2023-03-18T14:05:00.057Z,4.38
2023-03-18T14:07:27.862Z,4.82
2023-03-18T14:10:17.235Z,5.15
2023-03-18T14:12:49.848Z,5.50
2023-03-18T14:15:28.748Z,4.25
2023-03-18T14:17:58.505Z,4.70
2023-03-18T14:20:53.423Z,4.70
2023-03-18T14:23:44.356Z,4.38
2023-03-18T14:26:26.655Z,4.53
2023-03-18T14:29:02.742Z,4.53
2023-03-18T14:31:38.461Z,4.15
2023-03-18T14:34:24.563Z,3.92
2023-03-18T14:36:53.989Z,4.35
2023-03-18T14:39:25.816Z,4.45
2023-03-18T14:41:57.122Z,4.13
2023-03-18T14:44:46.549Z,3.90
2023-03-18T14:47:39.517Z,3.67
2023-03-18T14:50:24.771Z,4.38
2023-03-18T14:52:56.678Z,4.22
2023-03-18T14:55:35.813Z,3.92
2023-03-18T14:58:03.210Z,4.22
2023-03-18T15:00:34.577Z,3.78
2023-03-18T15:03:07.746Z,3.63
2023-03-18T15:05:41.470Z,4.07
2023-03-18T15:08:15.179Z,4.03
2023-03-18T15:10:43.127Z,3.72
2023-03-18T15:13:14.935Z,3.35
2023-03-18T15:15:42.909Z,3.33
2023-03-18T15:18:32.573Z,3.70
2023-03-18T15:21:07.864Z,3.88
2023-03-18T15:23:42.827Z,3.97
2023-03-18T15:26:20.959Z,3.55
2023-03-18T15:28:49.163Z,3.92
2023-03-18T15:31:45.309Z,4.47
2023-03-18T15:34:31.837Z,3.70
2023-03-18T15:37:02.015Z,3.25
2023-03-18T15:39:36.192Z,4.15
2023-03-18T15:42:11.620Z,3.75
2023-03-18T15:44:39.579Z,3.45
2023-03-18T15:47:43.560Z,4.30
2023-03-18T15:52:43.752Z,3.40
2023-03-18T15:55:35.648Z,3.33
2023-03-18T15:58:06.040Z,3.40
2023-03-18T16:00:34.345Z,3.40
2023-03-18T16:03:01.235Z,4.15
2023-03-18T16:05:29.212Z,3.88
2023-03-18T16:07:57.051Z,3.83
2023-03-18T16:10:26.339Z,3.95
2023-03-18T16:13:01.720Z,4.28
2023-03-18T16:15:29.852Z,3.92
2023-03-18T16:17:57.851Z,3.72
2023-03-18T16:20:30.319Z,4.07
2023-03-18T16:22:57.931Z,3.92
2023-03-18T16:25:27.153Z,3.75
2023-03-18T16:27:56.347Z,3.45
2023-03-18T16:30:26.620Z,3.30
2023-03-18T16:32:54.836Z,2.78
2023-03-18T16:35:24.549Z,2.88
2023-03-18T16:37:51.966Z,3.25
2023-03-18T16:40:21.562Z,2.92
2023-03-18T16:42:49.144Z,3.60
2023-03-18T16:45:18.554Z,3.30
2023-03-18T16:47:47.367Z,3.58
2023-03-18T16:50:22.604Z,3.30
2023-03-18T16:52:50.446Z,3.00
2023-03-18T16:55:19.456Z,3.90
2023-03-18T16:57:59.000Z,4.00
2023-03-18T17:00:32.086Z,3.70
2023-03-18T17:03:00.201Z,3.95
2023-03-18T17:05:27.817Z,3.15
2023-03-18T17:07:55.074Z,3.92
2023-03-18T17:10:26.326Z,4.03
2023-03-18T17:13:02.548Z,3.47
2023-03-18T17:15:32.453Z,4.60
2023-03-18T17:17:59.755Z,4.25
2023-03-18T17:20:29.083Z,4.07
2023-03-18T17:22:56.488Z,4.45
2023-03-18T17:25:24.449Z,4.28
2023-03-18T17:27:59.903Z,4.80
2023-03-18T17:30:37.225Z,5.15
2023-03-18T17:33:05.326Z,4.80
2023-03-18T17:35:32.942Z,5.03
2023-03-18T17:37:59.876Z,5.45
2023-03-18T17:40:30.405Z,5.03
2023-03-18T17:42:57.368Z,5.38
2023-03-18T17:45:32.680Z,5.22
2023-03-18T17:48:36.442Z,6.45
2023-03-18T17:51:12.055Z,7.20
2023-03-18T17:53:48.495Z,7.22
2023-03-18T17:56:17.519Z,7.20
2023-03-18T17:58:47.202Z,7.35
2023-03-18T18:01:19.753Z,7.97
2023-03-18T18:03:47.846Z,7.75
2023-03-18T18:06:26.105Z,9.35
2023-03-18T18:08:56.110Z,7.95
2023-03-18T18:11:27.261Z,9.20
2023-03-18T18:14:02.101Z,8.70
2023-03-18T18:16:29.327Z,8.38
2023-03-18T18:18:56.146Z,7.55
2023-03-18T18:21:25.794Z,8.55
2023-03-18T18:23:52.636Z,8.82
2023-03-18T18:26:22.148Z,7.97
2023-03-18T18:28:51.504Z,8.25
2023-03-18T18:31:20.042Z,8.57
2023-03-18T18:33:49.969Z,8.98
2023-03-18T18:36:18.099Z,9.43
2023-03-18T18:38:45.158Z,8.50
2023-03-18T18:41:12.183Z,9.18
2023-03-18T18:43:39.175Z,8.02
2023-03-18T18:46:15.041Z,8.68
2023-03-18T18:48:43.721Z,8.25
2023-03-18T18:51:18.332Z,7.68
2023-03-18T18:53:46.399Z,8.55
2023-03-18T18:56:19.883Z,8.65
2023-03-18T18:58:47.617Z,8.70
2023-03-18T19:01:15.173Z,8.40
2023-03-18T19:03:42.242Z,8.13
2023-03-18T19:06:26.480Z,9.10
2023-03-18T19:08:56.632Z,10.05
2023-03-18T19:11:24.818Z,8.65
2023-03-18T19:13:52.384Z,9.32
2023-03-18T19:16:22.047Z,9.25
2023-03-18T19:18:48.978Z,9.20
2023-03-18T19:21:15.779Z,9.52
2023-03-18T19:23:42.464Z,12.40
2023-03-18T19:26:13.922Z,11.90
2023-03-18T19:28:58.336Z,11.23
2023-03-18T19:31:30.605Z,10.18
2023-03-18T19:34:00.248Z,10.95
2023-03-18T19:36:32.737Z,10.68
2023-03-18T19:39:01.304Z,14.40
2023-03-18T19:41:28.653Z,11.25
2023-03-18T19:43:59.738Z,13.15
2023-03-18T19:46:39.202Z,10.82
2023-03-18T19:49:24.167Z,10.95
2023-03-18T19:51:52.572Z,10.20
2023-03-18T19:54:31.529Z,11.50
2023-03-18T19:57:01.476Z,10.88
2023-03-18T19:59:37.403Z,10.85
2023-03-18T20:02:19.885Z,11.30
2023-03-18T20:04:47.942Z,12.05
2023-03-18T20:07:14.870Z,11.13
2023-03-18T20:09:41.765Z,13.25
2023-03-18T20:12:22.829Z,13.77
2023-03-18T20:14:49.818Z,14.00
2023-03-18T20:17:34.564Z,12.02
2023-03-18T20:20:01.384Z,11.65
2023-03-18T20:22:40.125Z,12.30
2023-03-18T20:25:14.876Z,12.10
2023-03-18T20:27:42.593Z,11.18
2023-03-18T20:30:32.317Z,11.85
2023-03-18T20:33:04.249Z,13.63
2023-03-18T20:35:34.026Z,12.55
2023-03-18T20:38:13.963Z,11.50
2023-03-18T20:40:42.562Z,12.65
2023-03-18T20:43:15.478Z,11.80
2023-03-18T20:45:42.319Z,12.30
2023-03-18T20:48:09.714Z,11.45
2023-03-18T20:50:37.111Z,12.77
2023-03-18T20:53:06.074Z,12.07
2023-03-18T20:55:35.383Z,15.45
2023-03-18T20:58:03.533Z,10.63
2023-03-18T21:00:33.228Z,11.30
2023-03-18T21:03:01.834Z,11.73
2023-03-18T21:05:28.669Z,13.10
2023-03-18T21:07:55.928Z,11.88
2023-03-18T21:10:25.750Z,12.15
2023-03-18T21:12:53.029Z,12.27
2023-03-18T21:15:22.975Z,12.23
2023-03-18T21:17:50.340Z,12.02
2023-03-18T21:20:22.408Z,13.10
2023-03-18T21:22:50.580Z,13.10
2023-03-18T21:25:26.553Z,13.35
2023-03-18T21:27:53.913Z,11.80
2023-03-18T21:30:22.729Z,12.45
2023-03-18T21:32:51.021Z,11.77
2023-03-18T21:35:21.775Z,12.43
2023-03-18T21:37:48.784Z,11.95
2023-03-18T21:40:18.673Z,12.07
2023-03-18T21:42:46.607Z,11.98
2023-03-18T21:45:16.865Z,12.18
2023-03-18T21:47:44.550Z,10.25
2023-03-18T21:50:24.159Z,11.10
2023-03-18T21:52:52.106Z,10.60
2023-03-18T21:55:19.402Z,10.40
2023-03-18T21:57:48.839Z,11.63
2023-03-18T22:00:20.639Z,11.38
2023-03-18T22:02:48.314Z,11.48
2023-03-18T22:05:18.226Z,11.23
2023-03-18T22:07:45.334Z,9.95
2023-03-18T22:10:16.870Z,10.77
2023-03-18T22:12:43.811Z,10.25
2023-03-18T22:15:36.063Z,9.88
2023-03-18T22:18:03.185Z,10.90
2023-03-18T22:20:30.599Z,9.82
2023-03-18T22:22:57.470Z,10.05
2023-03-18T22:25:34.289Z,9.75
2023-03-18T22:28:01.545Z,10.32
2023-03-18T22:30:30.890Z,10.35
2023-03-18T22:32:59.178Z,9.07
2023-03-18T22:35:27.819Z,9.88
2023-03-18T22:37:55.252Z,9.57
2023-03-18T22:40:30.359Z,9.93
2023-03-18T22:43:01.627Z,9.23
2023-03-18T22:45:29.809Z,9.75
2023-03-18T22:47:59.390Z,8.85
2023-03-18T22:50:28.327Z,10.15
2023-03-18T22:53:08.322Z,9.18
2023-03-18T22:55:40.360Z,9.02
2023-03-18T22:58:07.657Z,9.82
2023-03-18T23:00:38.424Z,8.65
2023-03-18T23:03:18.598Z,9.15
2023-03-18T23:05:48.129Z,8.60
2023-03-18T23:08:15.426Z,8.43
2023-03-18T23:10:43.831Z,9.07
2023-03-18T23:13:28.898Z,8.75
2023-03-18T23:15:56.308Z,9.45
2023-03-18T23:18:23.766Z,9.35
2023-03-18T23:20:51.827Z,9.23
2023-03-18T23:23:20.946Z,8.95
2023-03-18T23:25:47.964Z,10.13
2023-03-18T23:28:16.146Z,9.27
2023-03-18T23:30:46.604Z,9.48
2023-03-18T23:33:13.941Z,11.05
2023-03-18T23:35:41.836Z,9.20
2023-03-18T23:38:08.633Z,8.95
2023-03-18T23:40:35.701Z,9.45
2023-03-18T23:43:04.018Z,9.43
2023-03-18T23:45:32.066Z,9.68
2023-03-18T23:47:59.068Z,9.77
2023-03-18T23:50:25.874Z,10.43
2023-03-18T23:52:52.714Z,9.75
2023-03-18T23:55:37.888Z,9.85
2023-03-18T23:58:05.282Z,10.13
